Time;durP1;ratioP1;P1;durP2;ratioP2;P2;SDS_P1;SDS_P2;PMS_P1;PMS_P2;Temp;Humidity;BMP_temperature;BMP_pressure;BME280_temperature;BME280_humidity;BME280_pressure;Samples;Min_cycle;Max_cycle;Signal;HPM_P1;HPM_P2
2021/08/14 10:14:20;;;;;;;13.95;4.65;;;23.80;73.20;;;;;;12112582;27;20456;-64
2021/08/14 10:20:10;;;;;;;14.40;4.63;;;24.20;70.00;;;;;;12068898;28;20143;-66
2021/08/14 10:26:01;;;;;;;10.45;4.05;;;24.80;69.50;;;;;;12055195;28;20056;-65
2021/08/14 10:31:50;;;;;;;9.75;4.53;;;25.50;68.60;;;;;;12067984;28;21915;-65
2021/08/14 10:37:36;;;;;;;13.23;4.70;;;25.80;66.20;;;;;;12071116;28;20044;-65
2021/08/14 10:44:04;;;;;;;13.50;4.95;;;26.10;66.10;;;;;;12057110;28;20056;-67
2021/08/14 10:49:51;;;;;;;11.73;4.63;;;26.40;66.30;;;;;;12064559;28;20040;-70
2021/08/14 10:55:39;;;;;;;12.02;4.78;;;26.60;64.60;;;;;;12091300;28;20056;-67
2021/08/14 11:01:33;;;;;;;13.73;4.72;;;26.70;64.10;;;;;;12095453;28;20036;-66
2021/08/14 11:07:33;;;;;;;12.85;4.82;;;26.90;65.40;;;;;;12098622;28;20040;-68
2021/08/14 11:13:42;;;;;;;10.93;4.47;;;27.10;64.60;;;;;;12102279;28;20043;-67
2021/08/14 11:19:51;;;;;;;11.25;4.40;;;27.20;64.00;;;;;;12103784;28;20503;-67
2021/08/14 11:25:40;;;;;;;10.05;4.82;;;27.40;64.50;;;;;;12067453;28;20098;-67
2021/08/14 11:31:28;;;;;;;10.77;4.45;;;27.60;64.30;;;;;;12067030;28;20593;-67
2021/08/14 11:37:19;;;;;;;12.25;5.10;;;27.60;63.60;;;;;;12066937;28;20059;-67
2021/08/14 11:43:08;;;;;;;11.55;4.93;;;27.70;63.90;;;;;;12070120;28;20049;-67
2021/08/14 11:48:55;;;;;;;8.27;4.28;;;27.90;63.90;;;;;;12071256;28;20522;-66
2021/08/14 11:54:43;;;;;;;9.35;4.93;;;27.90;64.20;;;;;;12047764;28;20512;-66
2021/08/14 12:00:32;;;;;;;11.23;4.95;;;28.00;63.60;;;;;;12036863;28;20059;-66
2021/08/14 12:06:18;;;;;;;12.18;5.50;;;28.00;63.80;;;;;;12038393;28;20654;-66
2021/08/14 12:12:08;;;;;;;10.13;4.95;;;28.10;64.90;;;;;;12046898;23;20049;-79
2021/08/14 12:17:54;;;;;;;12.77;5.57;;;28.10;62.80;;;;;;11955257;28;20053;-79
2021/08/14 12:23:43;;;;;;;10.27;4.85;;;28.20;65.00;;;;;;11951153;28;20046;-79
2021/08/14 12:29:32;;;;;;;10.43;4.95;;;28.30;64.00;;;;;;11952803;28;20496;-79
2021/08/14 12:35:21;;;;;;;10.10;4.95;;;28.60;64.70;;;;;;11953617;28;20049;-79
2021/08/14 12:41:18;;;;;;;8.43;5.15;;;28.80;64.90;;;;;;11951662;28;20528;-80
2021/08/14 12:47:06;;;;;;;12.50;5.03;;;29.00;63.30;;;;;;11957302;28;20056;-79
2021/08/14 12:53:04;;;;;;;8.02;4.80;;;29.10;62.80;;;;;;11954595;28;20060;-80
2021/08/14 12:58:51;;;;;;;9.32;4.95;;;29.20;61.10;;;;;;11950688;28;20053;-79
2021/08/14 13:04:39;;;;;;;8.00;4.68;;;29.20;60.50;;;;;;11958963;28;20049;-83
2021/08/14 13:10:27;;;;;;;8.00;4.70;;;29.20;58.70;;;;;;11953972;28;20417;-85
2021/08/14 13:16:14;;;;;;;10.73;5.20;;;29.30;59.00;;;;;;11962889;28;20046;-85
2021/08/14 13:22:03;;;;;;;8.20;4.60;;;29.60;59.40;;;;;;11964890;28;20045;-83
2021/08/14 13:27:51;;;;;;;8.90;5.10;;;29.80;58.20;;;;;;11962529;28;20057;-80
2021/08/14 13:33:38;;;;;;;9.98;5.15;;;29.90;59.30;;;;;;11952173;28;20073;-80
2021/08/14 13:39:26;;;;;;;8.20;5.00;;;30.10;58.70;;;;;;11949780;28;20049;-80
2021/08/14 13:45:17;;;;;;;9.95;4.82;;;30.10;58.60;;;;;;11949428;28;20048;-80
2021/08/14 13:51:04;;;;;;;8.60;5.38;;;30.20;55.80;;;;;;11949538;28;20057;-78
2021/08/14 13:56:52;;;;;;;8.45;5.20;;;30.10;55.40;;;;;;11950575;28;20488;-80
2021/08/14 14:02:39;;;;;;;7.25;4.78;;;30.20;55.90;;;;;;11948510;28;20061;-81
2021/08/14 14:08:26;;;;;;;7.50;4.72;;;30.30;55.30;;;;;;11936657;28;20064;-78
2021/08/14 14:14:15;;;;;;;9.52;4.93;;;30.40;54.00;;;;;;11948085;28;20064;-81
2021/08/14 14:20:02;;;;;;;9.40;5.22;;;30.60;54.40;;;;;;11949076;28;20054;-79
2021/08/14 14:25:50;;;;;;;8.38;5.13;;;30.60;54.90;;;;;;11963061;28;20063;-80
2021/08/14 14:31:42;;;;;;;7.57;4.57;;;30.80;55.60;;;;;;11982298;28;20068;-80
2021/08/14 14:37:30;;;;;;;9.40;4.95;;;31.00;53.60;;;;;;11950286;28;20148;-80
2021/08/14 14:43:17;;;;;;;12.80;5.90;;;31.00;54.30;;;;;;11949009;28;20107;-82
2021/08/14 14:49:06;;;;;;;12.88;5.13;;;31.10;54.20;;;;;;11941180;28;20050;-79
2021/08/14 14:54:53;;;;;;;7.22;4.57;;;31.00;53.70;;;;;;11940362;28;20052;-79
2021/08/14 15:00:40;;;;;;;10.82;5.53;;;31.00;54.30;;;;;;11942865;28;20116;-79
2021/08/14 15:06:28;;;;;;;10.07;4.70;;;31.00;54.30;;;;;;11947980;28;20072;-78
2021/08/14 15:12:16;;;;;;;6.90;4.72;;;31.00;54.80;;;;;;11952686;28;20480;-78
2021/08/14 15:18:08;;;;;;;7.53;4.60;;;31.20;52.10;;;;;;11948755;28;20136;-78
2021/08/14 15:23:56;;;;;;;14.07;5.07;;;31.30;52.30;;;;;;11951628;28;20041;-78
2021/08/14 15:29:43;;;;;;;6.68;4.35;;;31.30;51.40;;;;;;11927128;28;20053;-79
2021/08/14 15:35:30;;;;;;;8.93;4.88;;;31.20;51.60;;;;;;11946537;28;20056;-78
2021/08/14 15:41:18;;;;;;;14.98;5.55;;;31.40;51.80;;;;;;11954483;28;20050;-78
2021/08/14 15:47:05;;;;;;;8.57;5.00;;;31.60;51.20;;;;;;11946893;28;20072;-79
2021/08/14 15:52:52;;;;;;;14.65;5.53;;;31.70;50.50;;;;;;11943895;28;20065;-77
2021/08/14 15:58:40;;;;;;;17.77;5.20;;;31.90;52.10;;;;;;11952240;28;20168;-77
2021/08/14 16:04:27;;;;;;;28.58;6.07;;;32.10;51.20;;;;;;11952012;28;20053;-76
2021/08/14 16:10:15;;;;;;;30.05;6.72;;;32.50;49.60;;;;;;11950537;28;20049;-77
2021/08/14 16:16:04;;;;;;;7.45;4.78;;;33.80;49.00;;;;;;11947208;28;20061;-78
2021/08/14 16:21:51;;;;;;;9.77;5.00;;;35.80;47.60;;;;;;11948922;28;21087;-77
2021/08/14 16:27:37;;;;;;;9.20;4.75;;;38.00;44.60;;;;;;11950690;28;20056;-77
2021/08/14 16:33:26;;;;;;;7.72;4.30;;;39.60;43.30;;;;;;11946573;28;20057;-77
2021/08/14 16:39:13;;;;;;;7.88;4.22;;;41.00;41.20;;;;;;11946287;28;20152;-78
2021/08/14 16:45:00;;;;;;;9.55;5.60;;;42.10;42.40;;;;;;11949964;28;20467;-77
2021/08/14 16:50:48;;;;;;;13.02;9.10;;;42.80;40.50;;;;;;11947097;28;20397;-78
2021/08/14 16:56:35;;;;;;;7.35;4.82;;;43.30;42.60;;;;;;11946629;28;20089;-79
2021/08/14 17:02:22;;;;;;;9.80;5.18;;;43.60;42.90;;;;;;11947785;28;20432;-78
2021/08/14 17:08:10;;;;;;;7.70;4.75;;;43.80;42.00;;;;;;11947076;28;20080;-77
2021/08/14 17:13:57;;;;;;;5.32;4.05;;;43.70;41.30;;;;;;11945771;28;20060;-76
2021/08/14 17:19:44;;;;;;;31.35;20.92;;;43.50;40.60;;;;;;11944207;28;20065;-77
2021/08/14 17:25:32;;;;;;;19.67;13.82;;;43.30;41.70;;;;;;11947925;28;20053;-76
2021/08/14 17:31:21;;;;;;;8.55;5.97;;;43.30;41.60;;;;;;11944445;28;20069;-77
2021/08/14 17:37:08;;;;;;;14.02;8.50;;;43.10;42.50;;;;;;11952733;28;20064;-76
2021/08/14 17:42:56;;;;;;;10.00;5.45;;;42.90;42.70;;;;;;11951045;28;20052;-77
2021/08/14 17:48:43;;;;;;;7.60;4.50;;;42.70;41.80;;;;;;11945388;28;20405;-76
2021/08/14 17:54:30;;;;;;;8.05;5.60;;;42.50;41.80;;;;;;11945272;28;20540;-77
2021/08/14 18:00:18;;;;;;;115.53;79.68;;;41.40;42.00;;;;;;11943670;28;20381;-77
2021/08/14 18:06:06;;;;;;;180.05;144.60;;;40.30;43.50;;;;;;11942695;28;20076;-76
2021/08/14 18:11:53;;;;;;;26.67;13.50;;;38.50;44.80;;;;;;11944018;28;20053;-76
2021/08/14 18:17:42;;;;;;;9.45;5.82;;;35.60;49.40;;;;;;11942969;28;20049;-76
2021/08/14 18:23:29;;;;;;;8.45;4.82;;;33.50;53.10;;;;;;11943342;28;20124;-76
2021/08/14 18:29:16;;;;;;;8.00;4.50;;;32.00;54.50;;;;;;11943051;28;20053;-76
2021/08/14 18:35:05;;;;;;;9.40;5.35;;;30.90;55.80;;;;;;11951344;28;20053;-76
2021/08/14 18:40:53;;;;;;;11.32;4.75;;;30.00;57.50;;;;;;11954409;28;20592;-75
2021/08/14 18:46:40;;;;;;;8.82;5.45;;;29.30;59.30;;;;;;11953329;28;20068;-75
2021/08/14 18:52:29;;;;;;;7.88;4.45;;;29.00;60.70;;;;;;11950046;28;20159;-78
2021/08/14 18:58:16;;;;;;;8.20;4.55;;;28.70;61.60;;;;;;11952289;28;20058;-77
2021/08/14 19:04:03;;;;;;;11.05;4.97;;;28.50;63.20;;;;;;11946823;28;20050;-75
2021/08/14 19:09:51;;;;;;;13.02;5.40;;;28.30;63.80;;;;;;11951431;28;20135;-76
2021/08/14 19:15:38;;;;;;;15.35;10.15;;;28.10;64.00;;;;;;11949095;28;20057;-77
2021/08/14 19:21:25;;;;;;;8.82;4.80;;;27.90;65.20;;;;;;11950326;28;20684;-76
2021/08/14 19:27:13;;;;;;;7.85;4.80;;;27.70;66.00;;;;;;11947750;28;20053;-77
2021/08/14 19:33:01;;;;;;;12.20;8.02;;;27.50;66.10;;;;;;11951443;28;20044;-76
2021/08/14 19:38:48;;;;;;;12.60;6.55;;;27.40;66.90;;;;;;11951992;28;20060;-76
2021/08/14 19:44:36;;;;;;;9.48;5.72;;;27.20;68.00;;;;;;11948956;28;20044;-78
2021/08/14 19:50:23;;;;;;;15.25;9.35;;;27.10;69.00;;;;;;11948577;28;20432;-77
2021/08/14 19:56:10;;;;;;;13.00;5.55;;;27.00;69.00;;;;;;11947630;28;20053;-79
2021/08/14 20:01:58;;;;;;;13.90;8.60;;;26.90;69.20;;;;;;11952314;28;20037;-78
2021/08/14 20:07:46;;;;;;;11.88;6.07;;;26.80;69.60;;;;;;11950472;28;20061;-79
2021/08/14 20:13:33;;;;;;;10.93;5.95;;;26.70;69.80;;;;;;11951088;28;20049;-77
2021/08/14 20:19:21;;;;;;;14.10;5.57;;;26.70;70.20;;;;;;11952727;28;20057;-78
2021/08/14 20:25:09;;;;;;;11.27;5.50;;;26.60;70.30;;;;;;11950893;28;20045;-78
2021/08/14 20:30:56;;;;;;;9.43;5.05;;;26.60;70.20;;;;;;11952148;28;20049;-78
2021/08/14 20:36:44;;;;;;;10.15;5.35;;;26.50;70.50;;;;;;11951235;28;20045;-78
2021/08/14 20:42:32;;;;;;;9.18;5.45;;;26.40;70.50;;;;;;11949660;28;20531;-78
2021/08/14 20:48:19;;;;;;;9.93;5.95;;;26.40;71.00;;;;;;11948876;28;20058;-78
2021/08/14 20:54:07;;;;;;;11.43;5.32;;;26.30;71.30;;;;;;11948216;28;20049;-78
2021/08/14 20:59:54;;;;;;;9.50;5.70;;;26.30;71.40;;;;;;11948115;28;20053;-78
2021/08/14 21:05:41;;;;;;;12.05;5.90;;;26.20;70.80;;;;;;11946595;28;20060;-78
2021/08/14 21:11:30;;;;;;;16.63;5.75;;;26.20;70.80;;;;;;11946347;28;20073;-78
2021/08/14 21:17:17;;;;;;;13.93;6.95;;;26.10;71.20;;;;;;11946237;28;20048;-78
2021/08/14 21:23:04;;;;;;;13.57;6.50;;;26.10;72.30;;;;;;11944782;28;20058;-78
2021/08/14 21:28:52;;;;;;;11.48;7.03;;;26.00;72.20;;;;;;11940323;28;20543;-78
2021/08/14 21:34:39;;;;;;;10.38;6.32;;;26.00;73.20;;;;;;11947221;28;20045;-78
2021/08/14 21:40:27;;;;;;;15.55;6.30;;;25.90;73.60;;;;;;11946224;28;20069;-78
2021/08/14 21:46:15;;;;;;;10.98;6.00;;;25.80;74.80;;;;;;11944860;28;20064;-77
2021/08/14 21:52:02;;;;;;;12.02;6.55;;;25.70;75.30;;;;;;11945945;28;20046;-77
2021/08/14 21:57:49;;;;;;;10.85;5.90;;;25.60;75.70;;;;;;11947357;28;20056;-77
2021/08/14 22:03:37;;;;;;;15.05;6.63;;;25.60;75.60;;;;;;11945898;28;20049;-78
2021/08/14 22:09:24;;;;;;;13.13;6.40;;;25.50;75.90;;;;;;11944458;28;20492;-78
2021/08/14 22:15:12;;;;;;;12.27;6.10;;;25.40;77.10;;;;;;11944188;28;20060;-77
2021/08/14 22:21:01;;;;;;;13.63;6.63;;;25.40;76.60;;;;;;11955643;28;20062;-78
2021/08/14 22:26:48;;;;;;;12.07;5.93;;;25.50;76.00;;;;;;11947031;28;20053;-78
2021/08/14 22:32:36;;;;;;;12.30;6.22;;;25.40;76.30;;;;;;11947002;28;20057;-78
2021/08/14 22:38:27;;;;;;;11.02;5.72;;;25.30;76.60;;;;;;11945488;28;20091;-78
2021/08/14 22:44:14;;;;;;;10.70;6.25;;;25.30;76.30;;;;;;11948684;28;20110;-78
2021/08/14 22:50:01;;;;;;;9.98;6.00;;;25.30;76.50;;;;;;11941954;28;20463;-78
2021/08/14 22:55:53;;;;;;;14.50;5.93;;;25.20;76.60;;;;;;11942409;28;20050;-78
2021/08/14 23:01:40;;;;;;;9.55;5.10;;;25.10;76.80;;;;;;11949161;28;20053;-79
2021/08/14 23:07:27;;;;;;;10.60;5.22;;;25.00;77.00;;;;;;11945593;28;20053;-78
2021/08/14 23:13:16;;;;;;;11.15;5.32;;;24.90;77.40;;;;;;11945671;28;20053;-78
2021/08/14 23:19:03;;;;;;;14.98;5.72;;;24.90;76.80;;;;;;11946986;28;20477;-78
2021/08/14 23:24:50;;;;;;;11.82;5.80;;;24.90;77.20;;;;;;11951751;28;20041;-79
